createdAt,value
2023-04-17T00:02:02.970Z,39.53
2023-04-17T00:04:30.893Z,42.07
2023-04-17T00:06:59.368Z,41.57
2023-04-17T00:09:26.031Z,42.53
2023-04-17T00:11:52.333Z,41.10
2023-04-17T00:14:18.634Z,41.67
2023-04-17T00:16:44.956Z,43.03
2023-04-17T00:19:11.818Z,41.57
2023-04-17T00:21:38.208Z,44.03
2023-04-17T00:24:04.588Z,40.73
2023-04-17T00:26:32.396Z,41.77
2023-04-17T00:28:58.668Z,43.73
2023-04-17T00:31:24.978Z,44.27
2023-04-17T00:33:51.254Z,39.87
2023-04-17T00:36:17.554Z,38.00
2023-04-17T00:38:43.903Z,36.20
2023-04-17T00:41:10.480Z,37.37
2023-04-17T00:43:36.962Z,36.83
2023-04-17T00:46:04.091Z,37.80
2023-04-17T00:48:30.606Z,37.50
2023-04-17T00:51:01.925Z,38.70
2023-04-17T00:53:31.894Z,38.67
2023-04-17T00:56:03.461Z,39.87
2023-04-17T00:58:29.864Z,39.07
2023-04-17T01:00:56.218Z,39.67
2023-04-17T01:03:23.056Z,39.67
2023-04-17T01:05:50.246Z,40.67
2023-04-17T01:08:16.994Z,39.30
2023-04-17T01:10:43.228Z,39.77
2023-04-17T01:13:09.622Z,38.60
2023-04-17T01:15:36.212Z,40.27
2023-04-17T01:18:03.016Z,39.80
2023-04-17T01:20:32.913Z,41.70
2023-04-17T01:22:59.564Z,41.47
2023-04-17T01:25:26.358Z,42.33
2023-04-17T01:27:52.696Z,42.80
2023-04-17T01:30:19.180Z,42.43
2023-04-17T01:32:45.515Z,42.53
2023-04-17T01:35:11.954Z,43.07
2023-04-17T01:37:38.274Z,42.23
2023-04-17T01:40:06.891Z,41.43
2023-04-17T01:42:33.902Z,42.80
2023-04-17T01:45:00.208Z,42.23
2023-04-17T01:47:26.597Z,43.10
2023-04-17T01:49:52.866Z,42.30
2023-04-17T01:52:19.198Z,42.30
2023-04-17T01:54:45.542Z,41.73
2023-04-17T01:57:11.829Z,41.20
2023-04-17T01:59:38.191Z,41.50
2023-04-17T02:02:04.573Z,42.10
2023-04-17T02:04:31.169Z,41.17
2023-04-17T02:06:57.526Z,41.00
2023-04-17T02:09:23.756Z,41.57
2023-04-17T02:11:50.047Z,41.93
2023-04-17T02:14:17.862Z,40.97
2023-04-17T02:16:45.624Z,41.30
2023-04-17T02:19:12.423Z,40.70
2023-04-17T02:21:38.906Z,42.10
2023-04-17T02:24:05.461Z,41.10
2023-04-17T02:26:31.782Z,42.27
2023-04-17T02:28:58.102Z,41.07
2023-04-17T02:31:24.444Z,42.17
2023-04-17T02:33:50.723Z,41.00
2023-04-17T02:36:16.991Z,40.27
2023-04-17T02:38:43.217Z,40.63
2023-04-17T02:41:10.136Z,41.97
2023-04-17T02:43:37.166Z,42.20
2023-04-17T02:46:03.437Z,42.37
2023-04-17T02:48:29.731Z,41.87
2023-04-17T02:50:56.005Z,41.47
2023-04-17T02:53:22.366Z,41.37
2023-04-17T02:55:48.651Z,40.97
2023-04-17T02:58:14.980Z,40.67
2023-04-17T03:00:41.371Z,41.33
2023-04-17T03:03:08.249Z,41.23
2023-04-17T03:05:34.617Z,41.17
2023-04-17T03:08:01.014Z,41.40
2023-04-17T03:10:27.326Z,41.07
2023-04-17T03:12:53.617Z,40.60
2023-04-17T03:15:19.965Z,41.57
2023-04-17T03:17:47.089Z,40.30
2023-04-17T03:20:15.606Z,42.63
2023-04-17T03:22:42.024Z,42.93
2023-04-17T03:25:08.985Z,43.23
2023-04-17T03:27:35.532Z,42.10
2023-04-17T03:30:01.800Z,42.53
2023-04-17T03:32:28.118Z,41.43
2023-04-17T03:34:54.377Z,42.73
2023-04-17T03:37:20.702Z,42.93
2023-04-17T03:39:46.918Z,43.43
2023-04-17T03:42:14.542Z,44.13
2023-04-17T03:44:41.022Z,45.47
2023-04-17T03:47:07.243Z,46.13
2023-04-17T03:49:33.626Z,46.17
2023-04-17T03:52:00.079Z,47.03
2023-04-17T03:54:26.397Z,47.17
2023-04-17T03:56:52.665Z,46.80
2023-04-17T03:59:19.048Z,48.33
2023-04-17T04:01:46.877Z,47.97
2023-04-17T04:04:13.503Z,47.43
2023-04-17T04:06:41.016Z,49.07
2023-04-17T04:09:07.375Z,49.33
2023-04-17T04:11:33.679Z,49.10
2023-04-17T04:13:59.942Z,49.83
2023-04-17T04:16:27.168Z,51.07
2023-04-17T04:18:53.575Z,51.20
2023-04-17T04:21:19.807Z,49.33
2023-04-17T04:23:46.126Z,49.53
2023-04-17T04:26:12.486Z,49.47
2023-04-17T04:28:38.926Z,48.73
2023-04-17T04:31:05.648Z,49.00
2023-04-17T04:33:32.027Z,49.33
2023-04-17T04:36:00.981Z,48.97
2023-04-17T04:38:30.735Z,48.67
2023-04-17T04:41:01.480Z,48.37
2023-04-17T04:43:33.326Z,48.23
2023-04-17T04:45:59.612Z,47.03
2023-04-17T04:48:25.852Z,47.00
2023-04-17T04:50:52.456Z,47.77
2023-04-17T04:53:18.732Z,47.83
2023-04-17T04:55:45.220Z,49.83
2023-04-17T04:58:11.529Z,49.83
2023-04-17T05:00:37.989Z,47.93
2023-04-17T05:03:04.468Z,48.93
2023-04-17T05:05:31.076Z,47.50
2023-04-17T05:07:57.274Z,57.50
2023-04-17T05:10:23.591Z,50.13
2023-04-17T05:12:49.842Z,47.97
2023-04-17T05:15:16.124Z,48.83
2023-04-17T05:17:43.254Z,48.10
2023-04-17T05:20:09.970Z,49.97
2023-04-17T05:22:36.257Z,48.60
2023-04-17T05:25:02.595Z,49.07
2023-04-17T05:27:28.855Z,52.40
2023-04-17T05:29:55.161Z,47.77
2023-04-17T05:32:21.717Z,48.60
2023-04-17T05:34:48.057Z,49.50
2023-04-17T05:37:14.274Z,48.50
2023-04-17T05:39:40.560Z,48.77
2023-04-17T05:42:06.829Z,46.77
2023-04-17T05:44:33.089Z,47.43
2023-04-17T05:47:00.185Z,48.57
2023-04-17T05:49:26.877Z,51.03
2023-04-17T05:51:53.188Z,52.50
2023-04-17T05:54:19.551Z,47.37
2023-04-17T05:56:45.796Z,46.30
2023-04-17T05:59:12.167Z,46.77
2023-04-17T06:01:39.543Z,45.67
2023-04-17T06:04:06.691Z,45.47
2023-04-17T06:06:33.236Z,44.97
2023-04-17T06:08:59.495Z,46.57
2023-04-17T06:11:25.814Z,43.60
2023-04-17T06:13:52.135Z,43.50
2023-04-17T06:16:18.616Z,41.57
2023-04-17T06:18:45.183Z,41.93
2023-04-17T06:21:13.788Z,41.67
2023-04-17T06:23:40.224Z,39.97
2023-04-17T06:26:06.673Z,40.10
2023-04-17T06:28:32.954Z,38.43
2023-04-17T06:30:59.331Z,37.90
2023-04-17T06:33:26.931Z,37.13
2023-04-17T06:35:53.311Z,54.97
2023-04-17T06:38:19.535Z,41.67
2023-04-17T06:40:46.588Z,38.97
2023-04-17T06:43:13.133Z,34.73
2023-04-17T06:45:42.897Z,33.63
2023-04-17T06:48:09.325Z,31.00
2023-04-17T06:50:35.921Z,31.13
2023-04-17T06:53:02.239Z,31.13
2023-04-17T06:55:28.749Z,31.33
2023-04-17T06:57:55.072Z,29.73
2023-04-17T07:00:21.728Z,29.43
2023-04-17T07:02:48.116Z,29.43
2023-04-17T07:05:14.739Z,27.90
2023-04-17T07:07:41.490Z,28.83
2023-04-17T07:10:07.871Z,28.30
2023-04-17T07:12:34.229Z,26.83
2023-04-17T07:15:00.666Z,28.67
2023-04-17T07:17:27.368Z,27.23
2023-04-17T07:19:53.758Z,27.33
2023-04-17T07:22:20.705Z,27.50
2023-04-17T07:24:46.942Z,27.60
2023-04-17T07:27:13.167Z,27.50
2023-04-17T07:29:39.523Z,28.83
2023-04-17T07:32:06.870Z,27.67
2023-04-17T07:34:34.261Z,27.03
2023-04-17T07:37:01.195Z,26.60
2023-04-17T07:39:30.578Z,27.47
2023-04-17T07:41:56.992Z,27.30
2023-04-17T07:44:23.245Z,27.77
2023-04-17T07:46:49.635Z,28.07
2023-04-17T07:49:16.409Z,27.87
2023-04-17T07:51:43.032Z,31.27
2023-04-17T07:54:09.340Z,30.80
2023-04-17T07:56:36.599Z,30.27
2023-04-17T07:59:03.489Z,28.07
2023-04-17T08:01:29.783Z,30.03
2023-04-17T08:03:56.359Z,29.57
2023-04-17T08:06:23.305Z,29.77
2023-04-17T08:08:49.549Z,30.40
2023-04-17T08:11:15.889Z,31.87
2023-04-17T08:13:42.222Z,30.93
2023-04-17T08:16:09.072Z,30.90
2023-04-17T08:18:37.420Z,30.13
2023-04-17T08:21:04.853Z,31.13
2023-04-17T08:23:31.242Z,31.80
2023-04-17T08:25:58.036Z,31.83
2023-04-17T08:28:24.937Z,31.23
2023-04-17T08:30:51.455Z,31.40
2023-04-17T08:33:18.394Z,31.57
2023-04-17T08:35:44.932Z,33.30
2023-04-17T08:38:14.002Z,32.37
2023-04-17T08:40:42.671Z,32.33
2023-04-17T08:43:16.074Z,32.67
2023-04-17T08:45:53.533Z,32.53
2023-04-17T08:48:20.898Z,32.57
2023-04-17T08:50:51.030Z,33.00
2023-04-17T08:53:17.901Z,33.23
2023-04-17T08:55:44.877Z,33.33
2023-04-17T08:58:11.676Z,31.50
2023-04-17T09:00:39.126Z,32.30
2023-04-17T09:03:07.551Z,32.23
2023-04-17T09:05:35.060Z,33.63
2023-04-17T09:08:12.239Z,31.17
2023-04-17T09:10:43.059Z,27.87
2023-04-17T09:13:10.345Z,28.30
2023-04-17T09:15:36.747Z,27.13
2023-04-17T09:18:03.634Z,26.80
2023-04-17T09:20:30.254Z,26.63
2023-04-17T09:23:01.277Z,25.93
2023-04-17T09:25:28.179Z,23.57
2023-04-17T09:27:55.790Z,24.87
2023-04-17T09:30:24.444Z,23.77
2023-04-17T09:33:02.378Z,23.47
2023-04-17T09:35:28.762Z,23.77
2023-04-17T09:37:56.171Z,23.17
2023-04-17T09:40:23.393Z,24.60
2023-04-17T09:43:00.254Z,23.50
2023-04-17T09:45:35.497Z,23.33
2023-04-17T09:48:15.152Z,23.33
2023-04-17T09:50:41.427Z,23.43
2023-04-17T09:53:07.967Z,22.90
2023-04-17T09:55:36.464Z,22.10
2023-04-17T09:58:04.513Z,21.73
2023-04-17T10:00:31.138Z,21.70
2023-04-17T10:02:58.871Z,21.50
2023-04-17T10:05:27.074Z,20.57
2023-04-17T10:07:53.481Z,34.60
2023-04-17T10:10:26.938Z,22.67
2023-04-17T10:12:55.735Z,22.77
2023-04-17T10:15:23.269Z,22.03
2023-04-17T10:17:49.996Z,21.33
2023-04-17T10:20:23.003Z,20.97
2023-04-17T10:22:56.654Z,18.87
2023-04-17T10:25:26.735Z,17.03
2023-04-17T10:27:54.234Z,15.93
2023-04-17T10:30:22.677Z,15.13
2023-04-17T10:33:09.932Z,15.67
2023-04-17T10:35:36.736Z,16.53
2023-04-17T10:38:04.141Z,17.40
2023-04-17T10:40:31.596Z,17.00
2023-04-17T10:43:07.131Z,15.97
2023-04-17T10:45:52.322Z,15.13
2023-04-17T10:48:22.933Z,13.73
2023-04-17T10:50:49.360Z,41.27
2023-04-17T10:53:34.057Z,17.43
2023-04-17T10:56:02.346Z,16.07
2023-04-17T10:58:31.581Z,14.90
2023-04-17T11:01:03.207Z,14.53
2023-04-17T11:03:30.869Z,13.80
2023-04-17T11:05:58.768Z,12.87
2023-04-17T11:08:25.201Z,12.27
2023-04-17T11:10:57.930Z,11.73
2023-04-17T11:13:24.269Z,12.20
2023-04-17T11:15:51.082Z,12.30
2023-04-17T11:18:18.281Z,12.23
2023-04-17T11:20:45.122Z,10.50
2023-04-17T11:23:11.367Z,9.93
2023-04-17T11:25:40.102Z,10.37
2023-04-17T11:28:06.537Z,10.70
2023-04-17T11:30:34.310Z,10.47
2023-04-17T11:33:01.409Z,10.30
2023-04-17T11:35:28.957Z,11.40
2023-04-17T11:38:21.389Z,14.13
2023-04-17T11:40:52.813Z,10.50
2023-04-17T11:43:20.032Z,9.87
2023-04-17T11:45:47.284Z,10.13
2023-04-17T11:48:14.855Z,10.47
2023-04-17T11:50:42.430Z,9.70
2023-04-17T11:53:11.995Z,9.73
2023-04-17T11:55:38.230Z,8.47
2023-04-17T11:58:06.540Z,7.63
2023-04-17T12:00:33.241Z,7.83
2023-04-17T12:03:00.867Z,7.53
2023-04-17T12:05:28.409Z,7.60
2023-04-17T12:08:02.157Z,7.90
2023-04-17T12:10:42.003Z,8.40
2023-04-17T12:13:09.041Z,8.10
2023-04-17T12:15:35.463Z,8.47
2023-04-17T12:18:05.838Z,7.73
2023-04-17T12:20:32.789Z,7.40
2023-04-17T12:22:59.174Z,7.73
2023-04-17T12:25:25.471Z,7.13
2023-04-17T12:27:51.769Z,12.27
2023-04-17T12:30:18.084Z,10.20
2023-04-17T12:32:48.613Z,8.63
2023-04-17T12:35:15.852Z,8.07
2023-04-17T12:37:44.173Z,7.57
2023-04-17T12:40:10.642Z,8.23
2023-04-17T12:42:46.436Z,8.00
2023-04-17T12:45:15.585Z,7.70
2023-04-17T12:47:42.436Z,8.40
2023-04-17T12:50:09.142Z,8.20
2023-04-17T12:52:35.815Z,8.50
2023-04-17T12:55:02.691Z,7.73
2023-04-17T12:57:29.034Z,7.90
2023-04-17T12:59:55.725Z,7.67
2023-04-17T13:02:23.647Z,6.53
2023-04-17T13:04:53.325Z,6.37
2023-04-17T13:07:20.419Z,5.80
2023-04-17T13:09:46.774Z,6.13
2023-04-17T13:12:13.373Z,5.80
2023-04-17T13:14:39.801Z,5.47
2023-04-17T13:17:06.531Z,6.90
2023-04-17T13:19:33.547Z,6.83
2023-04-17T13:21:59.934Z,7.20
2023-04-17T13:24:26.524Z,6.23
2023-04-17T13:26:53.006Z,6.47
2023-04-17T13:29:19.916Z,6.17
2023-04-17T13:31:46.399Z,6.60
2023-04-17T13:34:12.805Z,7.00
2023-04-17T13:36:39.125Z,6.93
2023-04-17T13:39:05.426Z,6.60
2023-04-17T13:41:31.788Z,6.07
2023-04-17T13:43:58.132Z,5.90
2023-04-17T13:46:24.611Z,5.60
2023-04-17T13:48:51.245Z,4.43
2023-04-17T13:51:17.522Z,4.60
2023-04-17T13:53:43.844Z,4.77
2023-04-17T13:56:10.124Z,4.37
2023-04-17T13:58:36.390Z,4.07
2023-04-17T14:01:02.638Z,3.90
2023-04-17T14:03:30.635Z,8.57
2023-04-17T14:05:57.056Z,18.07
2023-04-17T14:08:23.706Z,6.67
2023-04-17T14:10:49.988Z,3.40
2023-04-17T14:13:16.493Z,3.73
2023-04-17T14:15:43.048Z,4.13
2023-04-17T14:18:12.572Z,3.80
2023-04-17T14:20:39.166Z,4.20
2023-04-17T14:23:05.507Z,4.47
2023-04-17T14:25:31.791Z,4.37
2023-04-17T14:27:58.099Z,4.60
2023-04-17T14:30:24.426Z,4.83
2023-04-17T14:32:52.690Z,5.90
2023-04-17T14:35:19.544Z,5.80
2023-04-17T14:37:45.932Z,5.13
2023-04-17T14:40:12.471Z,5.17
2023-04-17T14:42:53.134Z,5.80
2023-04-17T14:45:20.650Z,5.83
2023-04-17T14:47:47.002Z,5.70
2023-04-17T14:50:13.391Z,6.23
2023-04-17T14:52:39.656Z,6.33
2023-04-17T14:55:06.015Z,6.67
2023-04-17T14:57:32.376Z,6.67
2023-04-17T14:59:58.716Z,6.33
2023-04-17T15:02:25.419Z,7.40
2023-04-17T15:04:51.806Z,7.60
2023-04-17T15:07:18.177Z,10.50
2023-04-17T15:09:44.573Z,7.43
2023-04-17T15:12:11.265Z,6.07
2023-04-17T15:14:37.610Z,6.70
2023-04-17T15:17:06.814Z,6.50
2023-04-17T15:19:33.776Z,6.30
2023-04-17T15:22:00.178Z,6.07
2023-04-17T15:24:26.709Z,5.93
2023-04-17T15:26:52.976Z,5.60
2023-04-17T15:29:19.231Z,5.43
2023-04-17T15:31:45.506Z,5.40
2023-04-17T15:34:13.485Z,5.33
2023-04-17T15:36:39.806Z,5.70
2023-04-17T15:39:06.230Z,5.37
2023-04-17T15:41:32.458Z,5.33
2023-04-17T15:43:58.750Z,5.80
2023-04-17T15:46:25.174Z,6.10
2023-04-17T15:49:05.017Z,6.20
2023-04-17T15:51:34.361Z,5.80
2023-04-17T15:54:00.676Z,6.13
2023-04-17T15:56:26.948Z,6.10
2023-04-17T15:58:53.236Z,6.10
2023-04-17T16:01:19.544Z,5.67
2023-04-17T16:03:46.057Z,6.20
2023-04-17T16:06:12.553Z,6.40
2023-04-17T16:08:38.833Z,6.27
2023-04-17T16:11:05.282Z,5.90
2023-04-17T16:13:31.719Z,5.77
2023-04-17T16:15:58.100Z,5.60
2023-04-17T16:18:24.383Z,5.87
2023-04-17T16:20:50.871Z,5.90
2023-04-17T16:23:17.195Z,5.37
2023-04-17T16:25:43.569Z,7.13
2023-04-17T16:28:09.817Z,7.07
2023-04-17T16:30:36.074Z,7.00
2023-04-17T16:33:02.676Z,6.30
2023-04-17T16:35:30.029Z,11.20
2023-04-17T16:37:56.325Z,7.60
2023-04-17T16:40:22.626Z,6.70
2023-04-17T16:42:48.883Z,7.10
2023-04-17T16:45:15.223Z,6.90
2023-04-17T16:47:41.620Z,7.17
2023-04-17T16:50:10.449Z,6.70
2023-04-17T16:52:38.834Z,6.87
2023-04-17T16:55:05.410Z,7.30
2023-04-17T16:57:32.118Z,7.53
2023-04-17T16:59:58.408Z,6.87
2023-04-17T17:02:24.802Z,6.80
2023-04-17T17:04:51.193Z,6.70
2023-04-17T17:07:17.475Z,7.07
2023-04-17T17:09:43.785Z,7.20
2023-04-17T17:12:10.902Z,8.27
2023-04-17T17:14:37.182Z,6.60
2023-04-17T17:17:03.448Z,7.17
2023-04-17T17:19:29.709Z,6.80
2023-04-17T17:21:56.116Z,6.43
2023-04-17T17:24:22.385Z,7.20
2023-04-17T17:26:48.664Z,6.80
2023-04-17T17:29:15.211Z,5.75
2023-04-17T17:31:41.696Z,6.47
2023-04-17T17:34:22.626Z,6.63
2023-04-17T17:36:52.684Z,21.85
2023-04-17T17:39:19.062Z,9.13
2023-04-17T17:41:47.391Z,6.90
2023-04-17T17:44:14.368Z,6.72
2023-04-17T17:46:41.013Z,6.68
2023-04-17T17:49:07.269Z,6.83
2023-04-17T17:51:33.610Z,7.30
2023-04-17T17:53:59.965Z,8.23
2023-04-17T17:56:26.284Z,7.53
2023-04-17T17:58:52.675Z,7.60
2023-04-17T18:01:19.183Z,8.83
2023-04-17T18:03:47.372Z,7.90
2023-04-17T18:06:15.754Z,7.60
2023-04-17T18:08:42.008Z,7.97
2023-04-17T18:11:08.394Z,8.33
2023-04-17T18:13:35.232Z,9.60
2023-04-17T18:16:04.754Z,9.60
2023-04-17T18:18:31.278Z,8.73
2023-04-17T18:20:57.570Z,7.97
2023-04-17T18:23:23.807Z,7.77
2023-04-17T18:25:59.613Z,7.73
2023-04-17T18:28:26.134Z,7.20
2023-04-17T18:30:52.524Z,7.40
2023-04-17T18:33:19.164Z,7.03
2023-04-17T18:35:45.574Z,7.30
2023-04-17T18:38:11.959Z,7.30
2023-04-17T18:40:38.258Z,7.40
2023-04-17T18:43:05.986Z,7.47
2023-04-17T18:45:32.528Z,6.80
2023-04-17T18:47:58.901Z,10.93
2023-04-17T18:50:26.794Z,13.20
2023-04-17T18:52:53.045Z,8.50
2023-04-17T18:55:19.492Z,7.43
2023-04-17T18:57:45.760Z,7.50
2023-04-17T19:00:12.706Z,7.00
2023-04-17T19:02:40.463Z,8.90
2023-04-17T19:05:07.128Z,8.70
2023-04-17T19:07:33.413Z,8.83
2023-04-17T19:09:59.751Z,10.77
2023-04-17T19:12:26.227Z,13.60
2023-04-17T19:14:52.465Z,13.67
2023-04-17T19:17:18.786Z,13.40
2023-04-17T19:19:45.143Z,14.17
2023-04-17T19:22:11.472Z,13.23
2023-04-17T19:24:37.981Z,12.17
2023-04-17T19:27:04.604Z,12.30
2023-04-17T19:29:32.098Z,12.73
2023-04-17T19:31:58.404Z,12.77
2023-04-17T19:34:24.782Z,13.73
2023-04-17T19:36:51.286Z,12.70
2023-04-17T19:39:17.559Z,11.80
2023-04-17T19:41:50.430Z,10.97
2023-04-17T19:44:16.654Z,11.10
2023-04-17T19:46:42.946Z,12.00
2023-04-17T19:49:11.811Z,19.53
2023-04-17T19:51:41.203Z,17.27
2023-04-17T19:54:09.875Z,13.73
2023-04-17T19:56:36.137Z,13.73
2023-04-17T19:59:02.855Z,11.40
2023-04-17T20:01:30.036Z,11.73
2023-04-17T20:03:56.552Z,9.70
2023-04-17T20:06:23.070Z,9.30
2023-04-17T20:08:49.373Z,9.60
2023-04-17T20:11:15.913Z,8.97
2023-04-17T20:13:42.264Z,9.53
2023-04-17T20:16:08.742Z,9.00
2023-04-17T20:18:37.170Z,9.23
2023-04-17T20:21:06.503Z,9.43
2023-04-17T20:23:32.868Z,9.37
2023-04-17T20:25:59.126Z,10.23
2023-04-17T20:28:28.519Z,9.87
2023-04-17T20:30:54.957Z,9.80
2023-04-17T20:33:22.437Z,9.60
2023-04-17T20:35:48.770Z,10.07
2023-04-17T20:38:15.122Z,10.03
2023-04-17T20:40:41.433Z,9.77
2023-04-17T20:43:07.745Z,10.00
2023-04-17T20:45:34.046Z,9.87
2023-04-17T20:48:00.351Z,9.47
2023-04-17T20:50:26.682Z,9.80
2023-04-17T20:52:52.950Z,9.40
2023-04-17T20:55:19.908Z,9.17
2023-04-17T20:57:46.787Z,9.07
2023-04-17T21:00:13.348Z,9.53
2023-04-17T21:02:39.759Z,9.40
2023-04-17T21:05:07.060Z,9.10
2023-04-17T21:07:33.339Z,9.40
2023-04-17T21:09:59.597Z,9.20
2023-04-17T21:12:26.008Z,9.67
2023-04-17T21:14:52.320Z,9.47
2023-04-17T21:17:18.661Z,9.37
2023-04-17T21:19:45.904Z,9.83
2023-04-17T21:22:12.894Z,9.87
2023-04-17T21:24:39.538Z,10.53
2023-04-17T21:27:05.888Z,10.57
2023-04-17T21:29:32.186Z,10.27
2023-04-17T21:31:58.585Z,10.50
2023-04-17T21:34:25.508Z,9.90
2023-04-17T21:36:52.873Z,9.77
2023-04-17T21:39:19.167Z,9.93
2023-04-17T21:41:45.500Z,9.87
2023-04-17T21:44:12.012Z,10.60
2023-04-17T21:46:38.826Z,10.80
2023-04-17T21:49:05.151Z,11.50
2023-04-17T21:51:31.668Z,10.80
2023-04-17T21:53:58.064Z,11.27
2023-04-17T21:56:24.400Z,11.77
2023-04-17T21:58:51.581Z,11.80
2023-04-17T22:01:17.856Z,12.47
2023-04-17T22:03:44.270Z,11.67
2023-04-17T22:06:10.542Z,11.30
2023-04-17T22:08:36.805Z,11.27
2023-04-17T22:11:05.251Z,10.73
2023-04-17T22:13:31.498Z,11.00
2023-04-17T22:15:58.555Z,10.90
2023-04-17T22:18:26.052Z,12.87
2023-04-17T22:20:52.320Z,12.73
2023-04-17T22:23:18.652Z,12.33
2023-04-17T22:25:45.051Z,13.27
2023-04-17T22:28:11.302Z,11.93
2023-04-17T22:30:37.556Z,10.90
2023-04-17T22:33:03.977Z,11.27
2023-04-17T22:35:30.424Z,10.43
2023-04-17T22:37:56.747Z,10.77
2023-04-17T22:40:23.049Z,11.27
2023-04-17T22:42:50.182Z,10.40
2023-04-17T22:45:16.575Z,10.87
2023-04-17T22:47:42.895Z,10.23
2023-04-17T22:50:10.538Z,10.80
2023-04-17T22:52:37.103Z,10.57
2023-04-17T22:55:03.997Z,11.20
2023-04-17T22:57:30.484Z,11.67
2023-04-17T22:59:56.710Z,11.60
2023-04-17T23:02:23.018Z,11.40
2023-04-17T23:04:49.332Z,11.40
2023-04-17T23:07:15.625Z,11.30
2023-04-17T23:09:41.847Z,11.17
2023-04-17T23:12:08.217Z,11.53
2023-04-17T23:14:34.494Z,11.87
2023-04-17T23:17:00.785Z,11.40
2023-04-17T23:19:27.181Z,11.73
2023-04-17T23:21:53.440Z,11.57
2023-04-17T23:24:19.766Z,12.17
2023-04-17T23:26:48.403Z,11.83
2023-04-17T23:29:14.643Z,11.87
2023-04-17T23:31:42.653Z,12.60
2023-04-17T23:34:09.079Z,13.03
2023-04-17T23:36:35.417Z,12.03
2023-04-17T23:39:01.744Z,12.23
2023-04-17T23:41:29.550Z,12.83
2023-04-17T23:43:58.812Z,12.73
2023-04-17T23:46:25.166Z,12.20
2023-04-17T23:48:51.526Z,12.83
2023-04-17T23:51:18.155Z,12.30
2023-04-17T23:53:45.241Z,12.30
2023-04-17T23:56:11.494Z,12.50
2023-04-17T23:58:38.128Z,12.80
